sensor_id;sensor_type;location;lat;lon;timestamp;P1;durP1;ratioP1;P2;durP2;ratioP2
4939;SDS011;2485;49.326;7.214;2023-11-19T00:00:42;1.50;;;1.33;;
4939;SDS011;2485;49.326;7.214;2023-11-19T00:03:08;2.97;;;1.57;;
4939;SDS011;2485;49.326;7.214;2023-11-19T00:05:36;1.63;;;1.50;;
4939;SDS011;2485;49.326;7.214;2023-11-19T00:08:02;1.97;;;1.37;;
4939;SDS011;2485;49.326;7.214;2023-11-19T00:10:29;4.03;;;1.70;;
4939;SDS011;2485;49.326;7.214;2023-11-19T00:12:56;2.00;;;1.30;;
4939;SDS011;2485;49.326;7.214;2023-11-19T00:15:24;4.47;;;1.63;;
4939;SDS011;2485;49.326;7.214;2023-11-19T00:17:50;3.20;;;1.83;;
4939;SDS011;2485;49.326;7.214;2023-11-19T00:20:17;2.53;;;1.70;;
4939;SDS011;2485;49.326;7.214;2023-11-19T00:22:44;5.57;;;2.10;;
4939;SDS011;2485;49.326;7.214;2023-11-19T00:25:13;1.63;;;1.40;;
4939;SDS011;2485;49.326;7.214;2023-11-19T00:27:40;1.90;;;1.57;;
4939;SDS011;2485;49.326;7.214;2023-11-19T00:30:09;1.77;;;1.40;;
4939;SDS011;2485;49.326;7.214;2023-11-19T00:32:38;3.30;;;2.00;;
4939;SDS011;2485;49.326;7.214;2023-11-19T00:35:04;3.67;;;2.57;;
4939;SDS011;2485;49.326;7.214;2023-11-19T00:37:32;3.60;;;2.20;;
4939;SDS011;2485;49.326;7.214;2023-11-19T00:39:59;8.57;;;4.30;;
4939;SDS011;2485;49.326;7.214;2023-11-19T00:42:25;1.23;;;1.13;;
4939;SDS011;2485;49.326;7.214;2023-11-19T00:44:52;3.83;;;1.90;;
4939;SDS011;2485;49.326;7.214;2023-11-19T00:47:19;3.63;;;2.80;;
4939;SDS011;2485;49.326;7.214;2023-11-19T00:49:47;6.20;;;2.60;;
4939;SDS011;2485;49.326;7.214;2023-11-19T00:52:15;4.53;;;2.40;;
4939;SDS011;2485;49.326;7.214;2023-11-19T00:54:41;2.70;;;1.93;;
4939;SDS011;2485;49.326;7.214;2023-11-19T00:57:08;5.43;;;3.37;;
4939;SDS011;2485;49.326;7.214;2023-11-19T00:59:34;2.00;;;1.80;;
4939;SDS011;2485;49.326;7.214;2023-11-19T01:02:01;2.63;;;1.90;;
4939;SDS011;2485;49.326;7.214;2023-11-19T01:04:28;4.10;;;3.13;;
4939;SDS011;2485;49.326;7.214;2023-11-19T01:06:56;3.63;;;2.60;;
4939;SDS011;2485;49.326;7.214;2023-11-19T01:09:23;2.37;;;2.03;;
4939;SDS011;2485;49.326;7.214;2023-11-19T01:11:49;2.87;;;2.03;;
4939;SDS011;2485;49.326;7.214;2023-11-19T01:14:16;1.90;;;1.60;;
4939;SDS011;2485;49.326;7.214;2023-11-19T01:16:43;2.00;;;1.80;;
4939;SDS011;2485;49.326;7.214;2023-11-19T01:19:09;2.50;;;2.30;;
4939;SDS011;2485;49.326;7.214;2023-11-19T01:21:36;2.73;;;2.40;;
4939;SDS011;2485;49.326;7.214;2023-11-19T01:24:04;2.30;;;2.10;;
4939;SDS011;2485;49.326;7.214;2023-11-19T01:26:34;2.63;;;2.40;;
4939;SDS011;2485;49.326;7.214;2023-11-19T01:29:01;3.40;;;2.63;;
4939;SDS011;2485;49.326;7.214;2023-11-19T01:31:27;2.70;;;2.10;;
4939;SDS011;2485;49.326;7.214;2023-11-19T01:33:54;2.83;;;2.37;;
4939;SDS011;2485;49.326;7.214;2023-11-19T01:36:20;2.07;;;1.70;;
4939;SDS011;2485;49.326;7.214;2023-11-19T01:38:47;2.70;;;2.50;;
4939;SDS011;2485;49.326;7.214;2023-11-19T01:41:15;2.17;;;1.97;;
4939;SDS011;2485;49.326;7.214;2023-11-19T01:43:41;1.77;;;1.47;;
4939;SDS011;2485;49.326;7.214;2023-11-19T01:46:08;2.07;;;1.97;;
4939;SDS011;2485;49.326;7.214;2023-11-19T01:48:36;1.80;;;1.70;;
4939;SDS011;2485;49.326;7.214;2023-11-19T01:51:04;1.87;;;1.77;;
4939;SDS011;2485;49.326;7.214;2023-11-19T01:53:31;4.00;;;2.40;;
4939;SDS011;2485;49.326;7.214;2023-11-19T01:55:58;2.00;;;1.80;;
4939;SDS011;2485;49.326;7.214;2023-11-19T01:58:26;2.10;;;2.00;;
4939;SDS011;2485;49.326;7.214;2023-11-19T02:00:55;2.10;;;2.00;;
4939;SDS011;2485;49.326;7.214;2023-11-19T02:03:22;1.70;;;1.60;;
4939;SDS011;2485;49.326;7.214;2023-11-19T02:05:50;2.00;;;1.90;;
4939;SDS011;2485;49.326;7.214;2023-11-19T02:08:18;2.03;;;1.93;;
4939;SDS011;2485;49.326;7.214;2023-11-19T02:10:45;1.93;;;1.53;;
4939;SDS011;2485;49.326;7.214;2023-11-19T02:13:12;1.80;;;1.70;;
4939;SDS011;2485;49.326;7.214;2023-11-19T02:15:40;2.13;;;1.93;;
4939;SDS011;2485;49.326;7.214;2023-11-19T02:18:17;2.00;;;1.83;;
4939;SDS011;2485;49.326;7.214;2023-11-19T02:20:43;2.60;;;1.93;;
4939;SDS011;2485;49.326;7.214;2023-11-19T02:23:10;2.57;;;2.17;;
4939;SDS011;2485;49.326;7.214;2023-11-19T02:25:37;2.30;;;1.67;;
4939;SDS011;2485;49.326;7.214;2023-11-19T02:28:06;2.17;;;1.97;;
4939;SDS011;2485;49.326;7.214;2023-11-19T02:30:33;3.07;;;2.40;;
4939;SDS011;2485;49.326;7.214;2023-11-19T02:33:00;1.93;;;1.83;;
4939;SDS011;2485;49.326;7.214;2023-11-19T02:35:30;2.27;;;2.07;;
4939;SDS011;2485;49.326;7.214;2023-11-19T02:37:57;2.50;;;2.20;;
4939;SDS011;2485;49.326;7.214;2023-11-19T02:40:24;2.83;;;2.63;;
4939;SDS011;2485;49.326;7.214;2023-11-19T02:42:51;3.00;;;2.37;;
4939;SDS011;2485;49.326;7.214;2023-11-19T02:45:19;2.70;;;2.50;;
4939;SDS011;2485;49.326;7.214;2023-11-19T02:47:47;2.40;;;2.13;;
4939;SDS011;2485;49.326;7.214;2023-11-19T02:50:14;2.70;;;2.50;;
4939;SDS011;2485;49.326;7.214;2023-11-19T02:52:40;2.90;;;2.60;;
4939;SDS011;2485;49.326;7.214;2023-11-19T02:55:07;2.73;;;2.53;;
4939;SDS011;2485;49.326;7.214;2023-11-19T02:57:37;3.60;;;3.27;;
4939;SDS011;2485;49.326;7.214;2023-11-19T03:00:06;3.73;;;3.43;;
4939;SDS011;2485;49.326;7.214;2023-11-19T03:02:39;5.40;;;2.90;;
4939;SDS011;2485;49.326;7.214;2023-11-19T03:05:10;4.43;;;4.00;;
4939;SDS011;2485;49.326;7.214;2023-11-19T03:07:36;5.20;;;4.27;;
4939;SDS011;2485;49.326;7.214;2023-11-19T03:10:03;4.77;;;4.17;;
4939;SDS011;2485;49.326;7.214;2023-11-19T03:12:31;6.47;;;4.90;;
4939;SDS011;2485;49.326;7.214;2023-11-19T03:14:56;6.73;;;5.30;;
4939;SDS011;2485;49.326;7.214;2023-11-19T03:17:23;8.63;;;5.33;;
4939;SDS011;2485;49.326;7.214;2023-11-19T03:19:51;6.90;;;5.87;;
4939;SDS011;2485;49.326;7.214;2023-11-19T03:22:18;5.10;;;3.97;;
4939;SDS011;2485;49.326;7.214;2023-11-19T03:24:46;8.87;;;6.33;;
4939;SDS011;2485;49.326;7.214;2023-11-19T03:27:12;9.00;;;6.73;;
4939;SDS011;2485;49.326;7.214;2023-11-19T03:29:39;7.63;;;5.80;;
4939;SDS011;2485;49.326;7.214;2023-11-19T03:32:05;8.80;;;6.83;;
4939;SDS011;2485;49.326;7.214;2023-11-19T03:34:32;13.20;;;8.20;;
4939;SDS011;2485;49.326;7.214;2023-11-19T03:37:00;9.70;;;7.67;;
4939;SDS011;2485;49.326;7.214;2023-11-19T03:39:28;12.13;;;8.70;;
4939;SDS011;2485;49.326;7.214;2023-11-19T03:41:55;12.60;;;8.77;;
4939;SDS011;2485;49.326;7.214;2023-11-19T03:44:21;11.93;;;8.07;;
4939;SDS011;2485;49.326;7.214;2023-11-19T03:46:48;9.00;;;6.60;;
4939;SDS011;2485;49.326;7.214;2023-11-19T03:49:14;11.00;;;7.87;;
4939;SDS011;2485;49.326;7.214;2023-11-19T03:51:41;10.87;;;7.77;;
4939;SDS011;2485;49.326;7.214;2023-11-19T03:54:09;12.30;;;7.93;;
4939;SDS011;2485;49.326;7.214;2023-11-19T03:56:36;10.40;;;8.10;;
4939;SDS011;2485;49.326;7.214;2023-11-19T03:59:03;8.87;;;6.40;;
4939;SDS011;2485;49.326;7.214;2023-11-19T04:01:30;12.53;;;7.83;;
4939;SDS011;2485;49.326;7.214;2023-11-19T04:03:57;11.87;;;8.33;;
4939;SDS011;2485;49.326;7.214;2023-11-19T04:06:24;12.50;;;8.20;;
4939;SDS011;2485;49.326;7.214;2023-11-19T04:08:50;12.70;;;8.57;;
4939;SDS011;2485;49.326;7.214;2023-11-19T04:11:18;11.60;;;8.80;;
4939;SDS011;2485;49.326;7.214;2023-11-19T04:13:45;9.60;;;7.70;;
4939;SDS011;2485;49.326;7.214;2023-11-19T04:16:11;10.87;;;8.63;;
4939;SDS011;2485;49.326;7.214;2023-11-19T04:18:37;9.97;;;7.53;;
4939;SDS011;2485;49.326;7.214;2023-11-19T04:21:05;14.50;;;8.33;;
4939;SDS011;2485;49.326;7.214;2023-11-19T04:23:32;16.13;;;10.20;;
4939;SDS011;2485;49.326;7.214;2023-11-19T04:26:01;13.63;;;9.90;;
4939;SDS011;2485;49.326;7.214;2023-11-19T04:28:30;12.13;;;8.70;;
4939;SDS011;2485;49.326;7.214;2023-11-19T04:30:57;11.60;;;8.00;;
4939;SDS011;2485;49.326;7.214;2023-11-19T04:33:23;14.60;;;10.40;;
4939;SDS011;2485;49.326;7.214;2023-11-19T04:35:50;20.70;;;11.50;;
4939;SDS011;2485;49.326;7.214;2023-11-19T04:38:17;14.80;;;10.03;;
4939;SDS011;2485;49.326;7.214;2023-11-19T04:40:43;12.53;;;9.40;;
4939;SDS011;2485;49.326;7.214;2023-11-19T04:43:10;13.70;;;9.20;;
4939;SDS011;2485;49.326;7.214;2023-11-19T04:45:38;16.40;;;10.20;;
4939;SDS011;2485;49.326;7.214;2023-11-19T04:48:05;12.00;;;7.47;;
4939;SDS011;2485;49.326;7.214;2023-11-19T04:50:32;13.33;;;10.00;;
4939;SDS011;2485;49.326;7.214;2023-11-19T04:52:58;14.20;;;9.90;;
4939;SDS011;2485;49.326;7.214;2023-11-19T04:55:25;18.80;;;10.70;;
4939;SDS011;2485;49.326;7.214;2023-11-19T04:57:53;12.67;;;10.00;;
4939;SDS011;2485;49.326;7.214;2023-11-19T05:00:20;10.47;;;6.50;;
4939;SDS011;2485;49.326;7.214;2023-11-19T05:02:49;13.50;;;8.67;;
4939;SDS011;2485;49.326;7.214;2023-11-19T05:05:16;10.77;;;7.33;;
4939;SDS011;2485;49.326;7.214;2023-11-19T05:07:42;13.23;;;8.37;;
4939;SDS011;2485;49.326;7.214;2023-11-19T05:10:09;12.60;;;8.80;;
4939;SDS011;2485;49.326;7.214;2023-11-19T05:12:36;9.80;;;7.57;;
4939;SDS011;2485;49.326;7.214;2023-11-19T05:15:02;9.30;;;7.10;;
4939;SDS011;2485;49.326;7.214;2023-11-19T05:17:29;7.77;;;6.67;;
4939;SDS011;2485;49.326;7.214;2023-11-19T05:19:58;10.80;;;7.33;;
4939;SDS011;2485;49.326;7.214;2023-11-19T05:22:24;11.10;;;6.60;;
4939;SDS011;2485;49.326;7.214;2023-11-19T05:24:52;8.90;;;6.60;;
4939;SDS011;2485;49.326;7.214;2023-11-19T05:27:19;10.03;;;6.87;;
4939;SDS011;2485;49.326;7.214;2023-11-19T05:29:46;13.70;;;7.70;;
4939;SDS011;2485;49.326;7.214;2023-11-19T05:32:12;12.47;;;7.60;;
4939;SDS011;2485;49.326;7.214;2023-11-19T05:34:39;9.50;;;7.00;;
4939;SDS011;2485;49.326;7.214;2023-11-19T05:37:07;11.90;;;7.17;;
4939;SDS011;2485;49.326;7.214;2023-11-19T05:39:35;12.47;;;9.03;;
4939;SDS011;2485;49.326;7.214;2023-11-19T05:42:02;10.73;;;7.33;;
4939;SDS011;2485;49.326;7.214;2023-11-19T05:44:29;18.07;;;7.43;;
4939;SDS011;2485;49.326;7.214;2023-11-19T05:46:56;11.00;;;8.43;;
4939;SDS011;2485;49.326;7.214;2023-11-19T05:49:22;10.30;;;8.00;;
4939;SDS011;2485;49.326;7.214;2023-11-19T05:51:49;9.60;;;6.87;;
4939;SDS011;2485;49.326;7.214;2023-11-19T05:54:17;11.53;;;7.50;;
4939;SDS011;2485;49.326;7.214;2023-11-19T05:56:47;13.63;;;7.20;;
4939;SDS011;2485;49.326;7.214;2023-11-19T05:59:14;9.83;;;7.40;;
4939;SDS011;2485;49.326;7.214;2023-11-19T06:01:42;10.63;;;6.67;;
4939;SDS011;2485;49.326;7.214;2023-11-19T06:04:09;8.83;;;6.50;;
4939;SDS011;2485;49.326;7.214;2023-11-19T06:06:36;12.60;;;8.20;;
4939;SDS011;2485;49.326;7.214;2023-11-19T06:09:03;17.60;;;7.90;;
4939;SDS011;2485;49.326;7.214;2023-11-19T06:11:32;11.37;;;6.93;;
4939;SDS011;2485;49.326;7.214;2023-11-19T06:14:01;9.80;;;6.40;;
4939;SDS011;2485;49.326;7.214;2023-11-19T06:16:28;8.33;;;5.83;;
4939;SDS011;2485;49.326;7.214;2023-11-19T06:18:54;13.03;;;6.27;;
4939;SDS011;2485;49.326;7.214;2023-11-19T06:21:21;8.50;;;5.40;;
4939;SDS011;2485;49.326;7.214;2023-11-19T06:23:48;7.93;;;5.80;;
4939;SDS011;2485;49.326;7.214;2023-11-19T06:26:16;23.67;;;12.70;;
4939;SDS011;2485;49.326;7.214;2023-11-19T06:28:44;23.43;;;12.67;;
4939;SDS011;2485;49.326;7.214;2023-11-19T06:31:11;6.90;;;4.33;;
4939;SDS011;2485;49.326;7.214;2023-11-19T06:33:41;6.27;;;4.07;;
4939;SDS011;2485;49.326;7.214;2023-11-19T06:36:08;5.10;;;4.00;;
4939;SDS011;2485;49.326;7.214;2023-11-19T06:38:34;4.70;;;4.20;;
4939;SDS011;2485;49.326;7.214;2023-11-19T06:41:01;3.73;;;3.23;;
4939;SDS011;2485;49.326;7.214;2023-11-19T06:43:28;3.20;;;2.77;;
4939;SDS011;2485;49.326;7.214;2023-11-19T06:45:56;4.60;;;3.00;;
4939;SDS011;2485;49.326;7.214;2023-11-19T06:48:22;4.07;;;3.67;;
4939;SDS011;2485;49.326;7.214;2023-11-19T06:50:49;5.20;;;4.50;;
4939;SDS011;2485;49.326;7.214;2023-11-19T06:53:16;7.00;;;4.87;;
4939;SDS011;2485;49.326;7.214;2023-11-19T06:55:42;6.17;;;4.20;;
4939;SDS011;2485;49.326;7.214;2023-11-19T06:58:09;8.13;;;4.37;;
4939;SDS011;2485;49.326;7.214;2023-11-19T07:00:35;5.47;;;3.27;;
4939;SDS011;2485;49.326;7.214;2023-11-19T07:03:03;6.70;;;4.40;;
4939;SDS011;2485;49.326;7.214;2023-11-19T07:05:35;5.50;;;4.50;;
4939;SDS011;2485;49.326;7.214;2023-11-19T07:08:03;4.17;;;3.40;;
4939;SDS011;2485;49.326;7.214;2023-11-19T07:10:30;5.37;;;4.00;;
4939;SDS011;2485;49.326;7.214;2023-11-19T07:12:56;4.70;;;3.73;;
4939;SDS011;2485;49.326;7.214;2023-11-19T07:15:23;3.00;;;2.63;;
4939;SDS011;2485;49.326;7.214;2023-11-19T07:17:50;7.53;;;3.77;;
4939;SDS011;2485;49.326;7.214;2023-11-19T07:20:18;8.20;;;2.63;;
4939;SDS011;2485;49.326;7.214;2023-11-19T07:22:44;9.80;;;3.10;;
4939;SDS011;2485;49.326;7.214;2023-11-19T07:25:12;7.37;;;3.07;;
4939;SDS011;2485;49.326;7.214;2023-11-19T07:27:39;5.30;;;2.90;;
4939;SDS011;2485;49.326;7.214;2023-11-19T07:30:06;6.63;;;2.60;;
4939;SDS011;2485;49.326;7.214;2023-11-19T07:32:33;6.77;;;2.60;;
4939;SDS011;2485;49.326;7.214;2023-11-19T07:35:00;10.60;;;2.90;;
4939;SDS011;2485;49.326;7.214;2023-11-19T07:37:28;5.53;;;2.80;;
4939;SDS011;2485;49.326;7.214;2023-11-19T07:39:54;4.60;;;2.60;;
4939;SDS011;2485;49.326;7.214;2023-11-19T07:42:21;10.17;;;3.07;;
4939;SDS011;2485;49.326;7.214;2023-11-19T07:44:49;10.10;;;3.13;;
4939;SDS011;2485;49.326;7.214;2023-11-19T07:47:15;9.70;;;3.80;;
4939;SDS011;2485;49.326;7.214;2023-11-19T07:49:42;6.63;;;3.00;;
4939;SDS011;2485;49.326;7.214;2023-11-19T07:52:09;8.07;;;3.47;;
4939;SDS011;2485;49.326;7.214;2023-11-19T07:54:37;7.90;;;3.10;;
4939;SDS011;2485;49.326;7.214;2023-11-19T07:57:03;3.50;;;2.47;;
4939;SDS011;2485;49.326;7.214;2023-11-19T07:59:30;6.10;;;2.70;;
4939;SDS011;2485;49.326;7.214;2023-11-19T08:01:56;16.27;;;6.53;;
4939;SDS011;2485;49.326;7.214;2023-11-19T08:04:23;17.47;;;6.10;;
4939;SDS011;2485;49.326;7.214;2023-11-19T08:06:50;7.53;;;4.40;;
4939;SDS011;2485;49.326;7.214;2023-11-19T08:09:17;6.73;;;4.20;;
4939;SDS011;2485;49.326;7.214;2023-11-19T08:11:45;7.60;;;3.27;;
4939;SDS011;2485;49.326;7.214;2023-11-19T08:14:11;6.50;;;2.67;;
4939;SDS011;2485;49.326;7.214;2023-11-19T08:16:38;8.90;;;3.10;;
4939;SDS011;2485;49.326;7.214;2023-11-19T08:19:05;9.93;;;2.93;;
4939;SDS011;2485;49.326;7.214;2023-11-19T08:21:32;6.50;;;2.77;;
4939;SDS011;2485;49.326;7.214;2023-11-19T08:23:59;5.93;;;2.93;;
4939;SDS011;2485;49.326;7.214;2023-11-19T08:26:25;7.00;;;2.40;;
4939;SDS011;2485;49.326;7.214;2023-11-19T08:28:53;7.00;;;2.60;;
4939;SDS011;2485;49.326;7.214;2023-11-19T08:31:20;7.20;;;2.60;;
4939;SDS011;2485;49.326;7.214;2023-11-19T08:33:46;4.57;;;2.40;;
4939;SDS011;2485;49.326;7.214;2023-11-19T08:36:16;7.47;;;2.80;;
4939;SDS011;2485;49.326;7.214;2023-11-19T08:38:43;4.90;;;3.00;;
4939;SDS011;2485;49.326;7.214;2023-11-19T08:41:09;5.33;;;3.10;;
4939;SDS011;2485;49.326;7.214;2023-11-19T08:43:36;10.20;;;3.00;;
4939;SDS011;2485;49.326;7.214;2023-11-19T08:46:05;5.43;;;3.40;;
4939;SDS011;2485;49.326;7.214;2023-11-19T08:48:35;9.87;;;2.90;;
4939;SDS011;2485;49.326;7.214;2023-11-19T08:51:02;2.50;;;2.20;;
4939;SDS011;2485;49.326;7.214;2023-11-19T08:53:29;6.27;;;2.47;;
4939;SDS011;2485;49.326;7.214;2023-11-19T08:55:56;5.63;;;2.43;;
4939;SDS011;2485;49.326;7.214;2023-11-19T08:58:22;2.53;;;2.03;;
4939;SDS011;2485;49.326;7.214;2023-11-19T09:00:49;3.50;;;1.80;;
4939;SDS011;2485;49.326;7.214;2023-11-19T09:03:17;6.47;;;2.10;;
4939;SDS011;2485;49.326;7.214;2023-11-19T09:05:44;7.23;;;2.60;;
4939;SDS011;2485;49.326;7.214;2023-11-19T09:08:10;5.13;;;1.93;;
4939;SDS011;2485;49.326;7.214;2023-11-19T09:10:37;8.10;;;2.40;;
4939;SDS011;2485;49.326;7.214;2023-11-19T09:13:04;6.43;;;2.03;;
4939;SDS011;2485;49.326;7.214;2023-11-19T09:15:31;4.07;;;1.97;;
4939;SDS011;2485;49.326;7.214;2023-11-19T09:17:57;5.80;;;1.83;;
4939;SDS011;2485;49.326;7.214;2023-11-19T09:20:25;4.27;;;1.60;;
4939;SDS011;2485;49.326;7.214;2023-11-19T09:22:52;3.63;;;1.70;;
4939;SDS011;2485;49.326;7.214;2023-11-19T09:25:18;5.90;;;1.97;;
4939;SDS011;2485;49.326;7.214;2023-11-19T09:27:45;5.90;;;1.87;;
4939;SDS011;2485;49.326;7.214;2023-11-19T09:30:12;4.33;;;1.73;;
4939;SDS011;2485;49.326;7.214;2023-11-19T09:32:38;4.03;;;1.63;;
4939;SDS011;2485;49.326;7.214;2023-11-19T09:35:05;3.63;;;1.80;;
4939;SDS011;2485;49.326;7.214;2023-11-19T09:37:33;2.83;;;1.50;;
4939;SDS011;2485;49.326;7.214;2023-11-19T09:40:00;6.73;;;1.70;;
4939;SDS011;2485;49.326;7.214;2023-11-19T09:42:27;3.80;;;1.60;;
4939;SDS011;2485;49.326;7.214;2023-11-19T09:44:53;6.20;;;1.77;;
4939;SDS011;2485;49.326;7.214;2023-11-19T09:47:21;6.10;;;1.60;;
4939;SDS011;2485;49.326;7.214;2023-11-19T09:49:48;4.80;;;1.97;;
4939;SDS011;2485;49.326;7.214;2023-11-19T09:52:15;6.60;;;2.00;;
4939;SDS011;2485;49.326;7.214;2023-11-19T09:54:43;4.87;;;2.23;;
4939;SDS011;2485;49.326;7.214;2023-11-19T09:57:10;5.47;;;1.60;;
4939;SDS011;2485;49.326;7.214;2023-11-19T09:59:38;2.70;;;1.27;;
4939;SDS011;2485;49.326;7.214;2023-11-19T10:02:05;6.73;;;1.77;;
4939;SDS011;2485;49.326;7.214;2023-11-19T10:04:32;3.60;;;1.80;;
4939;SDS011;2485;49.326;7.214;2023-11-19T10:07:02;3.63;;;1.60;;
4939;SDS011;2485;49.326;7.214;2023-11-19T10:09:28;5.27;;;2.57;;
4939;SDS011;2485;49.326;7.214;2023-11-19T10:11:57;3.90;;;2.30;;
4939;SDS011;2485;49.326;7.214;2023-11-19T10:14:23;5.37;;;2.07;;
4939;SDS011;2485;49.326;7.214;2023-11-19T10:16:50;9.53;;;1.50;;
4939;SDS011;2485;49.326;7.214;2023-11-19T10:19:18;4.50;;;2.30;;
4939;SDS011;2485;49.326;7.214;2023-11-19T10:21:45;5.97;;;1.70;;
4939;SDS011;2485;49.326;7.214;2023-11-19T10:24:12;6.47;;;1.70;;
4939;SDS011;2485;49.326;7.214;2023-11-19T10:26:39;4.10;;;1.80;;
4939;SDS011;2485;49.326;7.214;2023-11-19T10:29:08;4.00;;;1.70;;
4939;SDS011;2485;49.326;7.214;2023-11-19T10:31:35;12.57;;;2.30;;
4939;SDS011;2485;49.326;7.214;2023-11-19T10:34:01;5.03;;;1.93;;
4939;SDS011;2485;49.326;7.214;2023-11-19T10:36:38;2.57;;;1.37;;
4939;SDS011;2485;49.326;7.214;2023-11-19T10:39:06;9.03;;;1.10;;
4939;SDS011;2485;49.326;7.214;2023-11-19T10:41:34;4.43;;;1.70;;
4939;SDS011;2485;49.326;7.214;2023-11-19T10:44:00;3.90;;;1.53;;
4939;SDS011;2485;49.326;7.214;2023-11-19T10:46:38;3.30;;;1.70;;
4939;SDS011;2485;49.326;7.214;2023-11-19T10:49:05;4.10;;;1.53;;
4939;SDS011;2485;49.326;7.214;2023-11-19T10:51:32;4.60;;;1.70;;
4939;SDS011;2485;49.326;7.214;2023-11-19T10:54:00;6.73;;;1.60;;
4939;SDS011;2485;49.326;7.214;2023-11-19T10:56:29;3.10;;;1.13;;
4939;SDS011;2485;49.326;7.214;2023-11-19T10:58:56;3.53;;;1.20;;
4939;SDS011;2485;49.326;7.214;2023-11-19T11:01:26;5.70;;;1.40;;
4939;SDS011;2485;49.326;7.214;2023-11-19T11:03:57;3.50;;;1.47;;
4939;SDS011;2485;49.326;7.214;2023-11-19T11:06:25;4.67;;;1.40;;
4939;SDS011;2485;49.326;7.214;2023-11-19T11:08:53;3.33;;;1.30;;
4939;SDS011;2485;49.326;7.214;2023-11-19T11:11:20;4.33;;;1.50;;
4939;SDS011;2485;49.326;7.214;2023-11-19T11:13:48;6.47;;;1.63;;
4939;SDS011;2485;49.326;7.214;2023-11-19T11:16:17;4.07;;;1.50;;
4939;SDS011;2485;49.326;7.214;2023-11-19T11:18:45;3.60;;;1.83;;
4939;SDS011;2485;49.326;7.214;2023-11-19T11:21:16;2.43;;;1.40;;
4939;SDS011;2485;49.326;7.214;2023-11-19T11:23:52;4.77;;;1.40;;
4939;SDS011;2485;49.326;7.214;2023-11-19T11:26:35;3.40;;;1.40;;
4939;SDS011;2485;49.326;7.214;2023-11-19T11:29:10;2.20;;;1.33;;
4939;SDS011;2485;49.326;7.214;2023-11-19T11:31:43;6.40;;;1.80;;
4939;SDS011;2485;49.326;7.214;2023-11-19T11:34:18;5.13;;;1.70;;
4939;SDS011;2485;49.326;7.214;2023-11-19T11:36:53;4.80;;;1.40;;
4939;SDS011;2485;49.326;7.214;2023-11-19T11:39:23;5.37;;;2.60;;
4939;SDS011;2485;49.326;7.214;2023-11-19T11:47:13;4.07;;;1.87;;
4939;SDS011;2485;49.326;7.214;2023-11-19T11:49:41;5.70;;;2.37;;
4939;SDS011;2485;49.326;7.214;2023-11-19T11:52:09;6.30;;;2.77;;
4939;SDS011;2485;49.326;7.214;2023-11-19T11:54:39;8.03;;;3.53;;
4939;SDS011;2485;49.326;7.214;2023-11-19T11:57:07;12.67;;;3.63;;
4939;SDS011;2485;49.326;7.214;2023-11-19T11:59:42;7.20;;;2.77;;
4939;SDS011;2485;49.326;7.214;2023-11-19T12:02:09;8.10;;;3.07;;
4939;SDS011;2485;49.326;7.214;2023-11-19T12:04:36;6.63;;;2.50;;
4939;SDS011;2485;49.326;7.214;2023-11-19T12:07:03;5.50;;;2.30;;
4939;SDS011;2485;49.326;7.214;2023-11-19T12:09:32;6.17;;;2.10;;
4939;SDS011;2485;49.326;7.214;2023-11-19T12:15:06;6.20;;;2.50;;
4939;SDS011;2485;49.326;7.214;2023-11-19T12:17:40;4.60;;;1.70;;
4939;SDS011;2485;49.326;7.214;2023-11-19T12:20:09;3.63;;;1.47;;
4939;SDS011;2485;49.326;7.214;2023-11-19T12:22:37;4.53;;;2.20;;
4939;SDS011;2485;49.326;7.214;2023-11-19T12:25:05;6.43;;;2.50;;
4939;SDS011;2485;49.326;7.214;2023-11-19T12:27:32;3.63;;;1.60;;
4939;SDS011;2485;49.326;7.214;2023-11-19T12:29:59;6.00;;;2.07;;
4939;SDS011;2485;49.326;7.214;2023-11-19T12:32:26;5.47;;;1.80;;
4939;SDS011;2485;49.326;7.214;2023-11-19T12:34:52;8.40;;;1.77;;
4939;SDS011;2485;49.326;7.214;2023-11-19T12:37:20;3.97;;;2.03;;
4939;SDS011;2485;49.326;7.214;2023-11-19T12:39:47;2.40;;;1.13;;
4939;SDS011;2485;49.326;7.214;2023-11-19T12:42:15;4.50;;;1.63;;
4939;SDS011;2485;49.326;7.214;2023-11-19T12:44:53;3.53;;;1.73;;
4939;SDS011;2485;49.326;7.214;2023-11-19T12:47:21;3.03;;;1.63;;
4939;SDS011;2485;49.326;7.214;2023-11-19T12:49:55;6.70;;;1.70;;
4939;SDS011;2485;49.326;7.214;2023-11-19T12:52:21;6.87;;;1.57;;
4939;SDS011;2485;49.326;7.214;2023-11-19T12:54:48;4.53;;;1.30;;
4939;SDS011;2485;49.326;7.214;2023-11-19T12:57:17;2.27;;;1.00;;
4939;SDS011;2485;49.326;7.214;2023-11-19T12:59:54;3.40;;;1.60;;
4939;SDS011;2485;49.326;7.214;2023-11-19T13:02:26;3.87;;;1.50;;
4939;SDS011;2485;49.326;7.214;2023-11-19T13:05:21;3.80;;;1.60;;
4939;SDS011;2485;49.326;7.214;2023-11-19T13:07:47;3.53;;;1.17;;
4939;SDS011;2485;49.326;7.214;2023-11-19T13:10:14;4.40;;;1.50;;
4939;SDS011;2485;49.326;7.214;2023-11-19T13:12:42;2.60;;;1.23;;
4939;SDS011;2485;49.326;7.214;2023-11-19T13:15:24;3.70;;;1.40;;
4939;SDS011;2485;49.326;7.214;2023-11-19T13:17:51;3.50;;;1.73;;
4939;SDS011;2485;49.326;7.214;2023-11-19T13:20:18;4.27;;;1.73;;
4939;SDS011;2485;49.326;7.214;2023-11-19T13:22:53;7.13;;;1.83;;
4939;SDS011;2485;49.326;7.214;2023-11-19T13:25:19;5.07;;;1.67;;
4939;SDS011;2485;49.326;7.214;2023-11-19T13:27:47;4.83;;;2.17;;
4939;SDS011;2485;49.326;7.214;2023-11-19T13:30:14;7.33;;;1.80;;
4939;SDS011;2485;49.326;7.214;2023-11-19T13:32:40;4.00;;;1.57;;
4939;SDS011;2485;49.326;7.214;2023-11-19T13:35:08;8.27;;;1.70;;
4939;SDS011;2485;49.326;7.214;2023-11-19T13:37:35;4.37;;;1.53;;
4939;SDS011;2485;49.326;7.214;2023-11-19T13:40:02;7.60;;;2.00;;
4939;SDS011;2485;49.326;7.214;2023-11-19T13:42:28;6.67;;;1.90;;
4939;SDS011;2485;49.326;7.214;2023-11-19T13:44:56;4.40;;;1.80;;
4939;SDS011;2485;49.326;7.214;2023-11-19T13:47:23;7.57;;;1.80;;
4939;SDS011;2485;49.326;7.214;2023-11-19T13:49:50;10.13;;;2.10;;
4939;SDS011;2485;49.326;7.214;2023-11-19T13:52:16;5.83;;;1.90;;
4939;SDS011;2485;49.326;7.214;2023-11-19T13:54:43;5.30;;;2.00;;
4939;SDS011;2485;49.326;7.214;2023-11-19T13:57:10;6.10;;;1.60;;
4939;SDS011;2485;49.326;7.214;2023-11-19T13:59:39;5.73;;;1.70;;
4939;SDS011;2485;49.326;7.214;2023-11-19T14:02:07;7.37;;;1.63;;
4939;SDS011;2485;49.326;7.214;2023-11-19T14:04:33;4.40;;;1.37;;
4939;SDS011;2485;49.326;7.214;2023-11-19T14:07:00;5.63;;;1.67;;
4939;SDS011;2485;49.326;7.214;2023-11-19T14:09:27;2.27;;;1.50;;
4939;SDS011;2485;49.326;7.214;2023-11-19T14:11:54;3.43;;;1.50;;
4939;SDS011;2485;49.326;7.214;2023-11-19T14:14:20;4.73;;;1.73;;
4939;SDS011;2485;49.326;7.214;2023-11-19T14:16:47;7.33;;;2.00;;
4939;SDS011;2485;49.326;7.214;2023-11-19T14:19:15;4.10;;;1.67;;
4939;SDS011;2485;49.326;7.214;2023-11-19T14:21:42;4.27;;;1.57;;
4939;SDS011;2485;49.326;7.214;2023-11-19T14:24:10;3.93;;;1.90;;
4939;SDS011;2485;49.326;7.214;2023-11-19T14:26:36;6.83;;;1.80;;
4939;SDS011;2485;49.326;7.214;2023-11-19T14:29:03;5.50;;;1.43;;
4939;SDS011;2485;49.326;7.214;2023-11-19T14:31:31;4.07;;;1.77;;
4939;SDS011;2485;49.326;7.214;2023-11-19T14:33:58;3.00;;;1.43;;
4939;SDS011;2485;49.326;7.214;2023-11-19T14:36:27;6.77;;;1.43;;
4939;SDS011;2485;49.326;7.214;2023-11-19T14:38:54;4.20;;;1.90;;
4939;SDS011;2485;49.326;7.214;2023-11-19T14:41:20;5.13;;;1.70;;
4939;SDS011;2485;49.326;7.214;2023-11-19T14:43:47;8.00;;;1.87;;
4939;SDS011;2485;49.326;7.214;2023-11-19T14:46:13;19.93;;;2.57;;
4939;SDS011;2485;49.326;7.214;2023-11-19T14:48:40;5.83;;;1.47;;
4939;SDS011;2485;49.326;7.214;2023-11-19T14:51:07;7.50;;;1.80;;
4939;SDS011;2485;49.326;7.214;2023-11-19T14:53:35;4.07;;;1.70;;
4939;SDS011;2485;49.326;7.214;2023-11-19T14:56:01;5.20;;;1.90;;
4939;SDS011;2485;49.326;7.214;2023-11-19T14:58:30;5.80;;;1.50;;
4939;SDS011;2485;49.326;7.214;2023-11-19T15:00:56;5.50;;;1.70;;
4939;SDS011;2485;49.326;7.214;2023-11-19T15:03:23;4.13;;;1.67;;
4939;SDS011;2485;49.326;7.214;2023-11-19T15:05:49;5.03;;;1.23;;
4939;SDS011;2485;49.326;7.214;2023-11-19T15:08:17;7.63;;;1.60;;
4939;SDS011;2485;49.326;7.214;2023-11-19T15:10:45;19.03;;;2.43;;
4939;SDS011;2485;49.326;7.214;2023-11-19T15:13:12;8.13;;;1.90;;
4939;SDS011;2485;49.326;7.214;2023-11-19T15:15:38;7.40;;;1.90;;
4939;SDS011;2485;49.326;7.214;2023-11-19T15:18:05;5.17;;;1.57;;
4939;SDS011;2485;49.326;7.214;2023-11-19T15:20:31;8.33;;;1.83;;
4939;SDS011;2485;49.326;7.214;2023-11-19T15:22:58;7.80;;;1.90;;